createdAt,value
2022-11-14T00:00:53.673Z,9.20
2022-11-14T00:03:41.761Z,9.30
2022-11-14T00:06:32.940Z,9.10
2022-11-14T00:09:20.904Z,9.10
2022-11-14T00:12:10.682Z,9.00
2022-11-14T00:15:03.259Z,9.00
2022-11-14T00:17:50.695Z,9.10
2022-11-14T00:20:59.105Z,8.90
2022-11-14T00:26:56.267Z,9.00
2022-11-14T00:30:11.071Z,9.00
2022-11-14T00:33:20.150Z,9.00
2022-11-14T00:36:19.278Z,9.00
2022-11-14T00:39:06.633Z,8.80
2022-11-14T00:41:54.356Z,8.90
2022-11-14T00:44:42.158Z,8.80
2022-11-14T00:47:30.432Z,8.70
2022-11-14T00:50:25.458Z,8.60
2022-11-14T00:53:18.614Z,8.60
2022-11-14T00:56:06.442Z,8.50
2022-11-14T00:58:54.558Z,8.30
2022-11-14T01:04:47.719Z,8.40
2022-11-14T01:07:40.774Z,8.50
2022-11-14T01:10:28.116Z,8.40
2022-11-14T01:13:16.347Z,8.40
2022-11-14T01:16:14.218Z,8.30
2022-11-14T01:19:05.273Z,8.20
2022-11-14T01:22:06.836Z,8.30
2022-11-14T01:24:55.298Z,8.20
2022-11-14T01:27:44.312Z,8.30
2022-11-14T01:30:33.068Z,8.30
2022-11-14T01:33:45.542Z,8.10
2022-11-14T02:08:44.108Z,7.70
2022-11-14T02:11:35.054Z,7.70
2022-11-14T02:14:22.847Z,7.60
2022-11-14T02:17:33.997Z,7.60
2022-11-14T02:20:31.792Z,7.60
2022-11-14T02:23:33.459Z,7.60
2022-11-14T02:26:23.519Z,7.60
2022-11-14T02:29:16.574Z,7.70
2022-11-14T02:32:08.170Z,7.50
2022-11-14T02:34:59.523Z,7.40
2022-11-14T02:37:52.244Z,7.50
2022-11-14T02:41:00.550Z,7.50
2022-11-14T02:43:49.688Z,7.40
2022-11-14T02:46:41.550Z,7.30
2022-11-14T02:49:55.756Z,7.30
2022-11-14T02:55:47.384Z,7.10
2022-11-14T02:58:34.903Z,7.30
2022-11-14T03:01:22.257Z,7.20
2022-11-14T03:04:24.869Z,7.30
2022-11-14T03:07:13.396Z,7.30
2022-11-14T03:10:00.662Z,7.20
2022-11-14T03:12:54.665Z,7.30
2022-11-14T03:15:51.866Z,7.30
2022-11-14T03:18:39.109Z,7.20
2022-11-14T03:21:29.293Z,7.10
2022-11-14T03:24:18.195Z,7.10
2022-11-14T03:27:11.797Z,7.00
2022-11-14T03:30:01.013Z,7.10
2022-11-14T03:33:00.445Z,7.00
2022-11-14T03:35:57.350Z,7.00
2022-11-14T03:38:48.538Z,7.00
2022-11-14T03:41:40.505Z,7.00
2022-11-14T03:44:30.251Z,6.90
2022-11-14T03:47:24.127Z,6.80
2022-11-14T03:50:22.325Z,6.80
2022-11-14T03:53:11.412Z,6.90
2022-11-14T03:56:03.812Z,6.90
2022-11-14T03:58:54.055Z,7.00
2022-11-14T04:01:45.352Z,6.90
2022-11-14T04:04:37.640Z,6.90
2022-11-14T04:07:25.479Z,6.90
2022-11-14T04:10:20.039Z,6.90
2022-11-14T04:13:09.475Z,6.90
2022-11-14T04:15:58.742Z,7.00
2022-11-14T04:18:53.428Z,6.90
2022-11-14T04:21:52.312Z,6.90
2022-11-14T04:24:41.428Z,6.90
2022-11-14T04:27:29.426Z,6.90
2022-11-14T04:30:24.503Z,6.70
2022-11-14T04:33:36.231Z,6.80
2022-11-14T04:36:29.332Z,6.70
2022-11-14T04:39:17.234Z,6.70
2022-11-14T04:42:05.027Z,6.90
2022-11-14T04:44:56.294Z,6.70
2022-11-14T04:47:50.207Z,6.70
2022-11-14T04:50:41.963Z,6.70
2022-11-14T04:53:39.294Z,6.80
2022-11-14T04:56:40.207Z,6.80
2022-11-14T04:59:27.526Z,6.80
2022-11-14T05:02:27.264Z,6.60
2022-11-14T05:05:17.388Z,6.70
2022-11-14T05:08:08.106Z,6.70
2022-11-14T05:10:55.950Z,6.60
2022-11-14T05:13:45.955Z,6.60
2022-11-14T05:16:33.524Z,6.50
2022-11-14T05:19:37.492Z,6.60
2022-11-14T05:22:25.970Z,6.50
2022-11-14T05:28:32.875Z,6.40
2022-11-14T05:31:23.447Z,6.50
2022-11-14T05:34:15.941Z,6.40
2022-11-14T05:37:04.552Z,6.30
2022-11-14T05:39:53.192Z,6.40
2022-11-14T05:42:40.838Z,6.50
2022-11-14T05:45:30.894Z,6.20
2022-11-14T05:48:25.725Z,6.30
2022-11-14T05:54:21.720Z,6.40
2022-11-14T05:57:25.966Z,6.30
2022-11-14T06:00:22.529Z,6.30
2022-11-14T06:03:11.432Z,6.20
2022-11-14T06:06:00.886Z,6.20
2022-11-14T06:08:49.207Z,6.30
2022-11-14T06:11:36.664Z,6.10
2022-11-14T06:14:25.289Z,6.20
2022-11-14T06:17:38.450Z,6.20
2022-11-14T06:20:27.816Z,6.10
2022-11-14T06:23:27.642Z,6.20
2022-11-14T06:26:24.078Z,6.10
2022-11-14T06:29:17.647Z,6.20
2022-11-14T06:32:06.692Z,6.10
2022-11-14T06:34:56.308Z,6.20
2022-11-14T06:37:51.117Z,6.00
2022-11-14T06:40:42.863Z,6.00
2022-11-14T06:47:04.381Z,6.00
2022-11-14T06:49:54.354Z,6.00
2022-11-14T06:52:44.790Z,6.10
2022-11-14T06:55:38.247Z,6.10
2022-11-14T06:58:36.883Z,6.10
2022-11-14T07:01:29.546Z,6.10
2022-11-14T07:04:23.411Z,6.10
2022-11-14T07:07:30.021Z,6.20
2022-11-14T07:10:26.930Z,6.20
2022-11-14T07:13:17.257Z,5.90
2022-11-14T07:16:06.503Z,6.10
2022-11-14T07:18:54.163Z,6.10
2022-11-14T07:21:41.598Z,6.10
2022-11-14T07:24:30.861Z,5.90
2022-11-14T07:27:21.912Z,5.90
2022-11-14T07:30:09.817Z,6.00
2022-11-14T07:33:01.291Z,6.00
2022-11-14T07:35:54.234Z,6.10
2022-11-14T07:38:41.765Z,6.00
2022-11-14T07:41:51.265Z,6.10
2022-11-14T07:44:41.924Z,6.20
2022-11-14T07:47:30.515Z,6.20
2022-11-14T07:50:20.815Z,6.10
2022-11-14T07:53:08.967Z,6.10
2022-11-14T07:55:56.644Z,6.20
2022-11-14T07:58:47.814Z,6.10
2022-11-14T08:04:36.702Z,6.30
2022-11-14T08:07:24.499Z,6.40
2022-11-14T08:10:14.892Z,6.30
2022-11-14T08:13:30.544Z,6.50
2022-11-14T08:16:15.228Z,6.50
2022-11-14T08:19:25.228Z,6.40
2022-11-14T08:22:13.147Z,6.40
2022-11-14T08:25:00.921Z,6.70
2022-11-14T08:27:50.498Z,6.70
2022-11-14T08:30:39.110Z,6.80
2022-11-14T08:33:26.701Z,6.70
2022-11-14T08:36:15.786Z,6.80
2022-11-14T08:39:05.627Z,6.80
2022-11-14T08:41:55.514Z,6.60
2022-11-14T08:44:46.741Z,6.70
2022-11-14T08:47:39.881Z,6.60
2022-11-14T08:50:28.566Z,6.60
2022-11-14T08:53:20.351Z,6.60
2022-11-14T08:56:09.884Z,6.70
2022-11-14T08:58:57.224Z,6.80
2022-11-14T09:01:45.952Z,7.20
2022-11-14T09:04:40.308Z,8.70
2022-11-14T09:07:28.718Z,10.50
2022-11-14T09:10:21.657Z,9.70
2022-11-14T09:13:11.289Z,10.60
2022-11-14T09:16:00.380Z,9.80
2022-11-14T09:18:57.727Z,8.60
2022-11-14T09:21:48.120Z,8.00
2022-11-14T09:24:39.117Z,7.90
2022-11-14T09:27:28.167Z,7.90
2022-11-14T09:30:16.336Z,7.80
2022-11-14T09:33:11.127Z,8.00
2022-11-14T09:36:04.256Z,8.70
2022-11-14T09:39:15.703Z,8.30
2022-11-14T09:42:17.624Z,8.10
2022-11-14T09:45:10.776Z,7.80
2022-11-14T09:48:10.750Z,7.60
2022-11-14T09:51:16.732Z,7.70
2022-11-14T09:54:11.509Z,7.80
2022-11-14T10:00:07.223Z,8.10
2022-11-14T10:06:22.868Z,8.20
2022-11-14T10:09:27.381Z,8.60
2022-11-14T10:12:43.276Z,8.60
2022-11-14T10:15:47.069Z,8.80
2022-11-14T10:18:41.442Z,8.60
2022-11-14T10:21:41.048Z,8.40
2022-11-14T10:24:41.217Z,9.00
2022-11-14T10:27:52.508Z,9.30
2022-11-14T10:30:56.623Z,9.60
2022-11-14T10:33:59.385Z,9.80
2022-11-14T10:36:51.718Z,10.10
2022-11-14T10:39:42.523Z,10.30
2022-11-14T10:42:41.416Z,10.70
2022-11-14T10:48:40.711Z,11.00
2022-11-14T10:51:30.301Z,10.80
2022-11-14T10:54:26.052Z,11.00
2022-11-14T10:57:22.643Z,11.00
2022-11-14T11:00:21.099Z,11.20
2022-11-14T11:03:08.725Z,11.10
2022-11-14T11:05:58.430Z,11.40
2022-11-14T11:09:05.206Z,11.60
2022-11-14T11:11:53.910Z,12.10
2022-11-14T11:14:50.737Z,12.50
2022-11-14T11:17:43.079Z,12.40
2022-11-14T11:20:41.837Z,12.40
2022-11-14T11:23:29.691Z,12.30
2022-11-14T11:26:28.287Z,12.60
2022-11-14T11:32:28.419Z,12.90
2022-11-14T11:35:39.101Z,12.10
2022-11-14T11:38:28.454Z,12.70
2022-11-14T11:42:00.912Z,12.60
2022-11-14T11:44:38.460Z,13.00
2022-11-14T11:48:18.418Z,12.90
2022-11-14T11:51:18.705Z,12.80
2022-11-14T11:54:11.904Z,13.50
2022-11-14T11:57:21.426Z,13.30
2022-11-14T12:00:22.131Z,13.50
2022-11-14T12:24:25.105Z,13.80
2022-11-14T12:27:20.885Z,14.10
2022-11-14T12:30:21.995Z,14.40
2022-11-14T12:33:17.258Z,13.80
2022-11-14T12:36:18.240Z,13.50
2022-11-14T12:39:20.587Z,13.70
2022-11-14T12:42:10.216Z,14.00
2022-11-14T12:44:58.356Z,13.70
2022-11-14T12:48:06.015Z,13.70
2022-11-14T13:13:20.450Z,13.20
2022-11-14T13:16:41.204Z,12.70
2022-11-14T13:19:46.998Z,12.40
2022-11-14T13:22:44.307Z,12.60
2022-11-14T13:25:32.055Z,12.90
2022-11-14T13:28:40.208Z,12.80
2022-11-14T13:31:33.501Z,13.20
2022-11-14T13:34:39.524Z,13.60
2022-11-14T13:40:39.643Z,13.90
2022-11-14T13:43:46.483Z,14.20
2022-11-14T13:46:34.351Z,14.20
2022-11-14T13:49:36.830Z,13.90
2022-11-14T13:52:28.258Z,14.50
2022-11-14T14:07:26.168Z,17.20
2022-11-14T14:10:49.148Z,16.80
2022-11-14T14:13:37.044Z,17.60
2022-11-14T14:16:29.856Z,17.50
2022-11-14T14:20:05.802Z,17.30
2022-11-14T14:26:23.853Z,12.90
2022-11-14T14:47:34.779Z,12.20
2022-11-14T14:50:23.590Z,11.00
2022-11-14T14:53:24.629Z,10.90
2022-11-14T14:56:20.030Z,10.70
2022-11-14T14:59:21.935Z,10.50
2022-11-14T15:02:20.955Z,10.20
2022-11-14T15:05:09.052Z,10.20
2022-11-14T15:07:58.559Z,10.00
2022-11-14T15:10:46.248Z,9.70
2022-11-14T15:13:33.995Z,9.80
2022-11-14T15:16:21.751Z,9.70
2022-11-14T15:19:12.512Z,9.60
2022-11-14T15:22:21.146Z,9.50
2022-11-14T15:25:11.799Z,9.30
2022-11-14T15:28:00.309Z,9.30
2022-11-14T15:31:01.456Z,9.30
2022-11-14T15:34:03.183Z,9.20
2022-11-14T15:37:09.948Z,9.20
2022-11-14T15:40:10.570Z,9.40
2022-11-14T15:42:59.422Z,9.10
2022-11-14T15:49:52.325Z,8.90
2022-11-14T15:53:01.657Z,9.10
2022-11-14T15:55:56.436Z,9.00
2022-11-14T15:58:59.656Z,8.90
2022-11-14T16:03:41.561Z,8.80
2022-11-14T16:10:03.514Z,8.90
2022-11-14T16:12:54.026Z,8.90
2022-11-14T16:18:51.788Z,8.80
2022-11-14T16:21:43.254Z,8.70
2022-11-14T16:24:56.344Z,8.60
2022-11-14T16:31:31.364Z,8.60
2022-11-14T16:34:30.999Z,8.70
2022-11-14T16:37:31.843Z,8.70
2022-11-14T16:40:31.549Z,8.50
2022-11-14T16:43:43.170Z,8.30
2022-11-14T16:46:38.721Z,8.50
2022-11-14T16:49:26.553Z,8.30
2022-11-14T16:55:26.177Z,8.30
2022-11-14T16:58:19.686Z,8.20
2022-11-14T17:01:43.701Z,8.30
2022-11-14T17:04:34.332Z,8.20
2022-11-14T17:11:12.531Z,8.20
2022-11-14T17:19:04.943Z,8.10
2022-11-14T17:23:16.152Z,8.20
2022-11-14T17:26:26.078Z,8.10
2022-11-14T17:29:13.168Z,8.00
2022-11-14T17:32:01.115Z,8.00
2022-11-14T17:34:48.972Z,7.90
2022-11-14T17:37:36.607Z,7.90
2022-11-14T17:40:24.418Z,8.00
2022-11-14T17:43:15.668Z,8.00
2022-11-14T17:46:04.107Z,8.00
2022-11-14T17:48:51.178Z,7.90
2022-11-14T17:51:38.254Z,8.00
2022-11-14T17:54:26.092Z,8.00
2022-11-14T17:57:13.333Z,7.90
2022-11-14T18:23:05.320Z,7.90
2022-11-14T18:25:52.933Z,7.70
2022-11-14T18:35:05.697Z,7.80
2022-11-14T18:37:53.284Z,7.70
2022-11-14T18:40:42.921Z,7.70
2022-11-14T18:43:58.064Z,7.80
2022-11-14T18:55:22.313Z,7.50
2022-11-14T18:58:42.747Z,7.60
2022-11-14T19:03:06.459Z,7.50
2022-11-14T19:06:38.034Z,7.60
2022-11-14T19:09:44.723Z,7.50
2022-11-14T19:12:52.105Z,7.60
2022-11-14T19:15:53.665Z,7.50
2022-11-14T19:18:59.437Z,7.50
2022-11-14T19:22:03.818Z,7.50
2022-11-14T19:28:55.597Z,7.40
2022-11-14T19:32:26.081Z,7.30
2022-11-14T19:35:49.082Z,7.30
2022-11-14T19:39:03.154Z,7.40
2022-11-14T19:42:19.154Z,7.40
2022-11-14T19:56:02.920Z,7.30
2022-11-14T19:58:51.382Z,7.30
2022-11-14T20:01:38.438Z,7.50
2022-11-14T20:04:29.213Z,7.50
2022-11-14T20:07:17.154Z,7.50
2022-11-14T20:10:05.446Z,7.50
2022-11-14T20:13:02.017Z,7.50
2022-11-14T20:15:49.463Z,7.60
2022-11-14T20:18:37.336Z,7.50
2022-11-14T20:21:25.238Z,7.50
2022-11-14T20:24:14.301Z,7.50
2022-11-14T20:27:01.848Z,7.60
2022-11-14T20:29:49.645Z,7.60
2022-11-14T20:32:37.141Z,7.40
2022-11-14T20:35:24.499Z,7.40
2022-11-14T20:38:12.084Z,7.50
2022-11-14T20:41:00.867Z,7.30
2022-11-14T20:43:48.439Z,7.50
2022-11-14T20:46:36.410Z,7.50
2022-11-14T20:49:24.023Z,7.50
2022-11-14T20:52:11.861Z,7.50
2022-11-14T20:55:00.454Z,7.60
2022-11-14T20:57:47.901Z,7.50
2022-11-14T21:00:35.463Z,7.50
2022-11-14T21:03:22.873Z,7.40
2022-11-14T21:06:14.249Z,7.60
2022-11-14T21:09:01.673Z,7.60
2022-11-14T21:11:49.411Z,7.50
2022-11-14T21:14:37.039Z,7.40
2022-11-14T21:17:24.923Z,7.60
2022-11-14T21:20:12.581Z,7.50
2022-11-14T21:23:00.148Z,7.50
2022-11-14T21:25:47.172Z,7.30
2022-11-14T21:28:35.050Z,7.40
2022-11-14T21:31:24.207Z,7.30
2022-11-14T21:37:23.812Z,7.60
2022-11-14T21:40:18.269Z,7.40
2022-11-14T21:43:22.832Z,7.40
2022-11-14T21:46:52.078Z,7.40
2022-11-14T21:54:15.348Z,7.20
2022-11-14T21:57:19.296Z,7.10
2022-11-14T22:00:20.676Z,7.10
2022-11-14T22:03:36.404Z,7.10
2022-11-14T22:06:40.096Z,7.10
2022-11-14T22:09:45.621Z,7.20
2022-11-14T22:12:39.900Z,7.30
2022-11-14T22:15:30.886Z,7.20
2022-11-14T22:18:27.117Z,7.20
2022-11-14T22:21:33.767Z,7.30
2022-11-14T22:24:33.199Z,7.30
2022-11-14T22:27:28.962Z,7.30
2022-11-14T22:30:19.839Z,7.30
2022-11-14T22:33:21.803Z,7.40
2022-11-14T22:36:38.670Z,7.40
2022-11-14T22:39:36.845Z,7.50
2022-11-14T22:42:36.484Z,7.50
2022-11-14T22:45:35.254Z,7.50
2022-11-14T22:48:24.100Z,7.60
2022-11-14T22:51:21.113Z,7.50
2022-11-14T22:54:26.248Z,7.60
2022-11-14T22:57:25.326Z,7.60
2022-11-14T23:00:27.420Z,7.70
2022-11-14T23:03:38.586Z,7.50
2022-11-14T23:06:30.471Z,7.60
2022-11-14T23:09:27.429Z,7.70
2022-11-14T23:15:35.044Z,7.50
2022-11-14T23:18:35.017Z,7.70
2022-11-14T23:21:27.913Z,7.60
2022-11-14T23:24:16.938Z,7.60
2022-11-14T23:27:04.490Z,7.60
2022-11-14T23:30:02.906Z,7.60
2022-11-14T23:33:01.336Z,7.70
